19.3°F
Current conditions from King Hill
Updated every 5 minutes
 
  Wednesday April 16, 2014

Station Historical Data
Daily Summary for May 5, 2012 Units:  Both    English   Metric
« Previous Day
Next Day »
Daily Weekly Monthly Yearly Custom
  High: Low: Average:
Temperature: 59.0 °F /  15 °C 41.7 °F /  5.4 °C 49.1 °F /  9.5 °C
Dew Point: 54.7 °F /  12.6 °C 33.8 °F /  1 °C 40.3 °F /  4.6 °C
Humidity: 96% 48% 73%
Wind Speed: 7.0mph /  11.3km/h - 2.2mph /  3.5km/h
Wind Gust: 17.0mph /  27.4km/h - -
Wind- - South
Pressure: 30.10 in /  1019.2 hPa 29.90 in /  1012.4 hPa -
Precipitation: 0.00 in /  0 mm    
Historical Graphs
 
 
Tabular Data for May 5, 2012
Time Temperature Dew Point Pressure Wind Wind Speed Wind Gust Humidity Daily Rainfall
00:04 55.8 °F /  13.2 °C 54.7 °F /  12.6 °C 29.90in /  1012.4hPa NNW 7.0mph /  11.3km/h 16.0mph /  25.7km/h 96% 0.00in /  0mm
00:09 55.1 °F /  12.8 °C 53.7 °F /  12.1 °C 29.90in /  1012.4hPa NNW 5.0mph /  8km/h 15.0mph /  24.1km/h 95% 0.00in /  0mm
00:14 54.4 °F /  12.4 °C 53.0 °F /  11.7 °C 29.90in /  1012.4hPa NW 7.0mph /  11.3km/h 17.0mph /  27.4km/h 95% 0.00in /  0mm
00:19 53.7 °F /  12.1 °C 52.3 °F /  11.3 °C 29.90in /  1012.4hPa NNW 3.0mph /  4.8km/h 17.0mph /  27.4km/h 95% 0.00in /  0mm
00:24 52.9 °F /  11.6 °C 51.5 °F /  10.8 °C 29.90in /  1012.4hPa NNW 4.0mph /  6.4km/h 14.0mph /  22.5km/h 95% 0.00in /  0mm
00:29 52.1 °F /  11.2 °C 50.7 °F /  10.4 °C 29.91in /  1012.8hPa NNW 5.0mph /  8km/h 14.0mph /  22.5km/h 95% 0.00in /  0mm
00:34 51.4 °F /  10.8 °C 50.0 °F /  10 °C 29.91in /  1012.8hPa NNW 3.0mph /  4.8km/h 11.0mph /  17.7km/h 95% 0.00in /  0mm
00:39 50.9 °F /  10.5 °C 49.5 °F /  9.7 °C 29.91in /  1012.8hPa North 3.0mph /  4.8km/h 10.0mph /  16.1km/h 95% 0.00in /  0mm
00:44 50.4 °F /  10.2 °C 49.0 °F /  9.4 °C 29.92in /  1013.1hPa North 4.0mph /  6.4km/h 12.0mph /  19.3km/h 95% 0.00in /  0mm
00:49 50.0 °F /  10 °C 48.6 °F /  9.2 °C 29.92in /  1013.1hPa NNW 3.0mph /  4.8km/h 15.0mph /  24.1km/h 95% 0.00in /  0mm
00:54 49.7 °F /  9.8 °C 48.3 °F /  9.1 °C 29.92in /  1013.1hPa NNW 3.0mph /  4.8km/h 15.0mph /  24.1km/h 95% 0.00in /  0mm
00:59 49.5 °F /  9.7 °C 48.1 °F /  8.9 °C 29.92in /  1013.1hPa NNW 4.0mph /  6.4km/h 10.0mph /  16.1km/h 95% 0.00in /  0mm
01:04 49.1 °F /  9.5 °C 47.7 °F /  8.7 °C 29.92in /  1013.1hPa NNW 5.0mph /  8km/h 11.0mph /  17.7km/h 95% 0.00in /  0mm
01:09 48.5 °F /  9.2 °C 47.1 °F /  8.4 °C 29.92in /  1013.1hPa North 7.0mph /  11.3km/h 16.0mph /  25.7km/h 95% 0.00in /  0mm
01:14 47.9 °F /  8.8 °C 46.5 °F /  8.1 °C 29.93in /  1013.4hPa NNW 3.0mph /  4.8km/h 16.0mph /  25.7km/h 95% 0.00in /  0mm
01:19 47.5 °F /  8.6 °C 46.1 °F /  7.8 °C 29.93in /  1013.4hPa North 5.0mph /  8km/h 13.0mph /  20.9km/h 95% 0.00in /  0mm
01:24 47.2 °F /  8.4 °C 45.8 °F /  7.7 °C 29.93in /  1013.4hPa NNW 1.0mph /  1.6km/h 13.0mph /  20.9km/h 95% 0.00in /  0mm
01:29 47.1 °F /  8.4 °C 45.7 °F /  7.6 °C 29.93in /  1013.4hPa NNW 4.0mph /  6.4km/h 9.0mph /  14.5km/h 95% 0.00in /  0mm
01:34 46.9 °F /  8.3 °C 45.5 °F /  7.5 °C 29.93in /  1013.4hPa NNW 2.0mph /  3.2km/h 9.0mph /  14.5km/h 95% 0.00in /  0mm
01:39 46.7 °F /  8.2 °C 45.3 °F /  7.4 °C 29.93in /  1013.4hPa North 2.0mph /  3.2km/h 11.0mph /  17.7km/h 95% 0.00in /  0mm
02:59 45.3 °F /  7.4 °C 43.4 °F /  6.3 °C 29.97in /  1014.8hPa North 3.0mph /  4.8km/h 11.0mph /  17.7km/h 93% 0.00in /  0mm
03:04 45.2 °F /  7.3 °C 43.3 °F /  6.3 °C 29.97in /  1014.8hPa NNE 1.0mph /  1.6km/h 11.0mph /  17.7km/h 93% 0.00in /  0mm
03:09 45.2 °F /  7.3 °C 43.3 °F /  6.3 °C 29.97in /  1014.8hPa NNE 1.0mph /  1.6km/h 10.0mph /  16.1km/h 93% 0.00in /  0mm
03:14 45.2 °F /  7.3 °C 43.0 °F /  6.1 °C 29.97in /  1014.8hPa NNE 2.0mph /  3.2km/h 10.0mph /  16.1km/h 92% 0.00in /  0mm
03:19 45.1 °F /  7.3 °C 42.9 °F /  6.1 °C 29.97in /  1014.8hPa NE 2.0mph /  3.2km/h 9.0mph /  14.5km/h 92% 0.00in /  0mm
03:24 45.1 °F /  7.3 °C 42.9 °F /  6.1 °C 29.97in /  1014.8hPa NNE 1.0mph /  1.6km/h 9.0mph /  14.5km/h 92% 0.00in /  0mm
03:29 45.0 °F /  7.2 °C 42.8 °F /  6 °C 29.97in /  1014.8hPa NE 1.0mph /  1.6km/h 6.0mph /  9.7km/h 92% 0.00in /  0mm
03:34 45.0 °F /  7.2 °C 42.8 °F /  6 °C 29.97in /  1014.8hPa ENE 1.0mph /  1.6km/h 11.0mph /  17.7km/h 92% 0.00in /  0mm
03:39 45.0 °F /  7.2 °C 42.8 °F /  6 °C 29.97in /  1014.8hPa NE 2.0mph /  3.2km/h 11.0mph /  17.7km/h 92% 0.00in /  0mm
03:45 45.0 °F /  7.2 °C 42.5 °F /  5.8 °C 29.97in /  1014.8hPa Calm   11.0mph /  17.7km/h 91% 0.00in /  0mm
03:54 44.9 °F /  7.2 °C 42.4 °F /  5.8 °C 29.97in /  1014.8hPa NNE 1.0mph /  1.6km/h 8.0mph /  12.9km/h 91% 0.00in /  0mm
03:59 44.9 °F /  7.2 °C 42.4 °F /  5.8 °C 29.97in /  1014.8hPa NNW 1.0mph /  1.6km/h 8.0mph /  12.9km/h 91% 0.00in /  0mm
04:04 44.9 °F /  7.2 °C 42.4 °F /  5.8 °C 29.97in /  1014.8hPa North 1.0mph /  1.6km/h 7.0mph /  11.3km/h 91% 0.00in /  0mm
04:09 44.8 °F /  7.1 °C 42.0 °F /  5.6 °C 29.97in /  1014.8hPa NNE 1.0mph /  1.6km/h 7.0mph /  11.3km/h 90% 0.00in /  0mm
04:14 44.8 °F /  7.1 °C 42.0 °F /  5.6 °C 29.97in /  1014.8hPa NNE 2.0mph /  3.2km/h 10.0mph /  16.1km/h 90% 0.00in /  0mm
04:19 44.7 °F /  7.1 °C 41.9 °F /  5.5 °C 29.98in /  1015.1hPa Calm   10.0mph /  16.1km/h 90% 0.00in /  0mm
04:24 44.7 °F /  7.1 °C 41.9 °F /  5.5 °C 29.98in /  1015.1hPa NNE 2.0mph /  3.2km/h 8.0mph /  12.9km/h 90% 0.00in /  0mm
04:29 44.7 °F /  7.1 °C 41.7 °F /  5.4 °C 29.98in /  1015.1hPa NE 3.0mph /  4.8km/h 9.0mph /  14.5km/h 89% 0.00in /  0mm
04:34 44.6 °F /  7 °C 41.6 °F /  5.3 °C 29.98in /  1015.1hPa North 2.0mph /  3.2km/h 9.0mph /  14.5km/h 89% 0.00in /  0mm
04:39 44.6 °F /  7 °C 41.6 °F /  5.3 °C 29.98in /  1015.1hPa NNE 2.0mph /  3.2km/h 8.0mph /  12.9km/h 89% 0.00in /  0mm
04:44 44.5 °F /  6.9 °C 41.5 °F /  5.3 °C 29.98in /  1015.1hPa NNE 3.0mph /  4.8km/h 8.0mph /  12.9km/h 89% 0.00in /  0mm
04:49 44.5 °F /  6.9 °C 41.5 °F /  5.3 °C 29.98in /  1015.1hPa NNE 2.0mph /  3.2km/h 8.0mph /  12.9km/h 89% 0.00in /  0mm
04:54 44.4 °F /  6.9 °C 41.4 °F /  5.2 °C 29.99in /  1015.5hPa NNW 1.0mph /  1.6km/h 8.0mph /  12.9km/h 89% 0.00in /  0mm
04:59 44.4 °F /  6.9 °C 41.4 °F /  5.2 °C 29.99in /  1015.5hPa Calm   8.0mph /  12.9km/h 89% 0.00in /  0mm
05:04 44.3 °F /  6.8 °C 41.3 °F /  5.2 °C 29.98in /  1015.1hPa NNE 1.0mph /  1.6km/h 5.0mph /  8km/h 89% 0.00in /  0mm
05:09 44.2 °F /  6.8 °C 41.2 °F /  5.1 °C 29.98in /  1015.1hPa Calm   7.0mph /  11.3km/h 89% 0.00in /  0mm
05:14 44.1 °F /  6.7 °C 41.1 °F /  5.1 °C 29.99in /  1015.5hPa Calm   8.0mph /  12.9km/h 89% 0.00in /  0mm
05:19 44.0 °F /  6.7 °C 41.0 °F /  5 °C 29.98in /  1015.1hPa NNE 1.0mph /  1.6km/h 8.0mph /  12.9km/h 89% 0.00in /  0mm
05:24 43.9 °F /  6.6 °C 40.9 °F /  4.9 °C 29.98in /  1015.1hPa Calm   7.0mph /  11.3km/h 89% 0.00in /  0mm
05:29 43.8 °F /  6.6 °C 40.8 °F /  4.9 °C 29.99in /  1015.5hPa North 3.0mph /  4.8km/h 8.0mph /  12.9km/h 89% 0.00in /  0mm
05:34 43.7 °F /  6.5 °C 40.7 °F /  4.8 °C 29.99in /  1015.5hPa NNE 1.0mph /  1.6km/h 8.0mph /  12.9km/h 89% 0.00in /  0mm
05:39 43.7 °F /  6.5 °C 40.7 °F /  4.8 °C 29.99in /  1015.5hPa North 2.0mph /  3.2km/h 7.0mph /  11.3km/h 89% 0.00in /  0mm
05:44 43.6 °F /  6.4 °C 40.6 °F /  4.8 °C 29.99in /  1015.5hPa North 1.0mph /  1.6km/h 8.0mph /  12.9km/h 89% 0.00in /  0mm
05:49 43.4 °F /  6.3 °C 40.1 °F /  4.5 °C 29.99in /  1015.5hPa NNE 1.0mph /  1.6km/h 8.0mph /  12.9km/h 88% 0.00in /  0mm
05:59 43.4 °F /  6.3 °C 40.4 °F /  4.7 °C 29.99in /  1015.5hPa NNE 1.0mph /  1.6km/h 6.0mph /  9.7km/h 89% 0.00in /  0mm
06:04 43.3 °F /  6.3 °C 40.3 °F /  4.6 °C 29.99in /  1015.5hPa NE 1.0mph /  1.6km/h 8.0mph /  12.9km/h 89% 0.00in /  0mm
06:09 43.2 °F /  6.2 °C 40.2 °F /  4.6 °C 30.00in /  1015.8hPa NE 1.0mph /  1.6km/h 9.0mph /  14.5km/h 89% 0.00in /  0mm
06:14 43.2 °F /  6.2 °C 40.2 °F /  4.6 °C 30.00in /  1015.8hPa Calm   9.0mph /  14.5km/h 89% 0.00in /  0mm
06:19 43.2 °F /  6.2 °C 40.2 °F /  4.6 °C 30.00in /  1015.8hPa NNE 1.0mph /  1.6km/h 7.0mph /  11.3km/h 89% 0.00in /  0mm
06:24 43.2 °F /  6.2 °C 40.2 °F /  4.6 °C 30.00in /  1015.8hPa Calm   6.0mph /  9.7km/h 89% 0.00in /  0mm
06:29 43.2 °F /  6.2 °C 40.2 °F /  4.6 °C 30.01in /  1016.1hPa Calm   5.0mph /  8km/h 89% 0.00in /  0mm
06:34 43.2 °F /  6.2 °C 40.5 °F /  4.7 °C 30.01in /  1016.1hPa North 3.0mph /  4.8km/h 8.0mph /  12.9km/h 90% 0.00in /  0mm
06:39 43.1 °F /  6.2 °C 40.4 °F /  4.7 °C 30.01in /  1016.1hPa Calm   8.0mph /  12.9km/h 90% 0.00in /  0mm
06:44 43.0 °F /  6.1 °C 40.3 °F /  4.6 °C 30.01in /  1016.1hPa NNW 1.0mph /  1.6km/h 8.0mph /  12.9km/h 90% 0.00in /  0mm
06:49 42.9 °F /  6.1 °C 40.2 °F /  4.6 °C 30.01in /  1016.1hPa NE 1.0mph /  1.6km/h 8.0mph /  12.9km/h 90% 0.00in /  0mm
06:54 42.8 °F /  6 °C 40.1 °F /  4.5 °C 30.01in /  1016.1hPa NNE 3.0mph /  4.8km/h 9.0mph /  14.5km/h 90% 0.00in /  0mm
06:59 42.5 °F /  5.8 °C 39.8 °F /  4.3 °C 30.02in /  1016.5hPa North 2.0mph /  3.2km/h 9.0mph /  14.5km/h 90% 0.00in /  0mm
07:04 42.6 °F /  5.9 °C 39.9 °F /  4.4 °C 30.02in /  1016.5hPa NE 1.0mph /  1.6km/h 9.0mph /  14.5km/h 90% 0.00in /  0mm
07:09 42.6 °F /  5.9 °C 40.2 °F /  4.6 °C 30.02in /  1016.5hPa North 1.0mph /  1.6km/h 9.0mph /  14.5km/h 91% 0.00in /  0mm
07:14 42.6 °F /  5.9 °C 40.2 °F /  4.6 °C 30.02in /  1016.5hPa North 2.0mph /  3.2km/h 7.0mph /  11.3km/h 91% 0.00in /  0mm
07:19 42.7 °F /  5.9 °C 40.3 °F /  4.6 °C 30.02in /  1016.5hPa Calm   7.0mph /  11.3km/h 91% 0.00in /  0mm
07:24 42.7 °F /  5.9 °C 40.3 °F /  4.6 °C 30.02in /  1016.5hPa Calm   5.0mph /  8km/h 91% 0.00in /  0mm
07:29 42.7 °F /  5.9 °C 40.0 °F /  4.4 °C 30.02in /  1016.5hPa Calm   4.0mph /  6.4km/h 90% 0.00in /  0mm
07:34 42.6 °F /  5.9 °C 39.9 °F /  4.4 °C 30.02in /  1016.5hPa North 3.0mph /  4.8km/h 10.0mph /  16.1km/h 90% 0.00in /  0mm
07:39 42.5 °F /  5.8 °C 39.8 °F /  4.3 °C 30.02in /  1016.5hPa Calm   10.0mph /  16.1km/h 90% 0.00in /  0mm
07:44 42.4 °F /  5.8 °C 39.4 °F /  4.1 °C 30.03in /  1016.8hPa Calm   10.0mph /  16.1km/h 89% 0.00in /  0mm
07:49 42.4 °F /  5.8 °C 39.4 °F /  4.1 °C 30.03in /  1016.8hPa Calm   4.0mph /  6.4km/h 89% 0.00in /  0mm
07:54 42.3 °F /  5.7 °C 39.3 °F /  4.1 °C 30.03in /  1016.8hPa North 1.0mph /  1.6km/h 6.0mph /  9.7km/h 89% 0.00in /  0mm
07:59 42.3 °F /  5.7 °C 39.3 °F /  4.1 °C 30.03in /  1016.8hPa Calm   6.0mph /  9.7km/h 89% 0.00in /  0mm
08:04 42.4 °F /  5.8 °C 39.4 °F /  4.1 °C 30.04in /  1017.2hPa Calm   6.0mph /  9.7km/h 89% 0.00in /  0mm
08:09 42.5 °F /  5.8 °C 39.2 °F /  4 °C 30.04in /  1017.2hPa NNE 1.0mph /  1.6km/h 6.0mph /  9.7km/h 88% 0.00in /  0mm
08:14 42.8 °F /  6 °C 39.5 °F /  4.2 °C 30.04in /  1017.2hPa NNE 2.0mph /  3.2km/h 6.0mph /  9.7km/h 88% 0.00in /  0mm
08:19 42.8 °F /  6 °C 39.5 °F /  4.2 °C 30.04in /  1017.2hPa North 1.0mph /  1.6km/h 6.0mph /  9.7km/h 88% 0.00in /  0mm
08:24 42.9 °F /  6.1 °C 39.6 °F /  4.2 °C 30.04in /  1017.2hPa Calm   5.0mph /  8km/h 88% 0.00in /  0mm
08:29 42.9 °F /  6.1 °C 39.3 °F /  4.1 °C 30.04in /  1017.2hPa NNE 2.0mph /  3.2km/h 7.0mph /  11.3km/h 87% 0.00in /  0mm
08:34 43.0 °F /  6.1 °C 39.4 °F /  4.1 °C 30.05in /  1017.5hPa Calm   7.0mph /  11.3km/h 87% 0.00in /  0mm
08:39 43.0 °F /  6.1 °C 39.1 °F /  3.9 °C 30.05in /  1017.5hPa Calm   6.0mph /  9.7km/h 86% 0.00in /  0mm
08:44 43.1 °F /  6.2 °C 39.2 °F /  4 °C 30.05in /  1017.5hPa North 2.0mph /  3.2km/h 8.0mph /  12.9km/h 86% 0.00in /  0mm
08:49 43.3 °F /  6.3 °C 39.1 °F /  3.9 °C 30.06in /  1017.8hPa North 2.0mph /  3.2km/h 9.0mph /  14.5km/h 85% 0.00in /  0mm
08:59 43.7 °F /  6.5 °C 38.3 °F /  3.5 °C 30.06in /  1017.8hPa NNE 2.0mph /  3.2km/h 7.0mph /  11.3km/h 81% 0.00in /  0mm
09:04 43.9 °F /  6.6 °C 38.8 °F /  3.8 °C 30.06in /  1017.8hPa NNE 1.0mph /  1.6km/h 6.0mph /  9.7km/h 82% 0.00in /  0mm
09:09 43.9 °F /  6.6 °C 38.1 °F /  3.4 °C 30.06in /  1017.8hPa Calm   6.0mph /  9.7km/h 80% 0.00in /  0mm
09:14 44.1 °F /  6.7 °C 38.3 °F /  3.5 °C 30.06in /  1017.8hPa NE 2.0mph /  3.2km/h 8.0mph /  12.9km/h 80% 0.00in /  0mm
09:19 43.9 °F /  6.6 °C 38.1 °F /  3.4 °C 30.07in /  1018.2hPa Calm   8.0mph /  12.9km/h 80% 0.00in /  0mm
09:24 43.9 °F /  6.6 °C 38.5 °F /  3.6 °C 30.07in /  1018.2hPa North 2.0mph /  3.2km/h 9.0mph /  14.5km/h 81% 0.00in /  0mm
09:34 44.0 °F /  6.7 °C 38.5 °F /  3.6 °C 30.07in /  1018.2hPa Calm   8.0mph /  12.9km/h 81% 0.00in /  0mm
09:39 44.2 °F /  6.8 °C 38.7 °F /  3.7 °C 30.07in /  1018.2hPa NNW 1.0mph /  1.6km/h 8.0mph /  12.9km/h 81% 0.00in /  0mm
09:44 44.3 °F /  6.8 °C 38.5 °F /  3.6 °C 30.07in /  1018.2hPa Calm   8.0mph /  12.9km/h 80% 0.00in /  0mm
09:49 44.5 °F /  6.9 °C 39.0 °F /  3.9 °C 30.08in /  1018.5hPa Calm   6.0mph /  9.7km/h 81% 0.00in /  0mm
09:54 44.8 °F /  7.1 °C 38.7 °F /  3.7 °C 30.08in /  1018.5hPa Calm   5.0mph /  8km/h 79% 0.00in /  0mm
09:59 45.0 °F /  7.2 °C 38.9 °F /  3.8 °C 30.08in /  1018.5hPa Calm   9.0mph /  14.5km/h 79% 0.00in /  0mm
10:04 45.2 °F /  7.3 °C 39.4 °F /  4.1 °C 30.08in /  1018.5hPa NW 1.0mph /  1.6km/h 9.0mph /  14.5km/h 80% 0.00in /  0mm
10:09 45.2 °F /  7.3 °C 38.4 °F /  3.6 °C 30.08in /  1018.5hPa North 3.0mph /  4.8km/h 8.0mph /  12.9km/h 77% 0.00in /  0mm
10:14 45.4 °F /  7.4 °C 38.9 °F /  3.8 °C 30.08in /  1018.5hPa North 3.0mph /  4.8km/h 10.0mph /  16.1km/h 78% 0.00in /  0mm
10:19 45.4 °F /  7.4 °C 38.3 °F /  3.5 °C 30.08in /  1018.5hPa NNE 1.0mph /  1.6km/h 10.0mph /  16.1km/h 76% 0.00in /  0mm
10:24 45.9 °F /  7.7 °C 39.4 °F /  4.1 °C 30.08in /  1018.5hPa Calm   8.0mph /  12.9km/h 78% 0.00in /  0mm
10:29 46.5 °F /  8.1 °C 39.3 °F /  4.1 °C 30.08in /  1018.5hPa NNE 2.0mph /  3.2km/h 7.0mph /  11.3km/h 76% 0.00in /  0mm
10:34 46.2 °F /  7.9 °C 38.4 °F /  3.6 °C 30.09in /  1018.8hPa NNE 3.0mph /  4.8km/h 9.0mph /  14.5km/h 74% 0.00in /  0mm
10:39 46.5 °F /  8.1 °C 39.3 °F /  4.1 °C 30.09in /  1018.8hPa NNW 1.0mph /  1.6km/h 9.0mph /  14.5km/h 76% 0.00in /  0mm
10:44 46.9 °F /  8.3 °C 39.1 °F /  3.9 °C 30.09in /  1018.8hPa Calm   6.0mph /  9.7km/h 74% 0.00in /  0mm
10:49 47.2 °F /  8.4 °C 39.7 °F /  4.3 °C 30.09in /  1018.8hPa NNW 2.0mph /  3.2km/h 8.0mph /  12.9km/h 75% 0.00in /  0mm
10:54 47.3 °F /  8.5 °C 39.4 °F /  4.1 °C 30.10in /  1019.2hPa NNW 1.0mph /  1.6km/h 8.0mph /  12.9km/h 74% 0.00in /  0mm
10:59 47.1 °F /  8.4 °C 38.9 °F /  3.8 °C 30.09in /  1018.8hPa NW 3.0mph /  4.8km/h 9.0mph /  14.5km/h 73% 0.00in /  0mm
11:04 47.3 °F /  8.5 °C 39.4 °F /  4.1 °C 30.09in /  1018.8hPa Calm   10.0mph /  16.1km/h 74% 0.00in /  0mm
11:09 48.0 °F /  8.9 °C 40.5 °F /  4.7 °C 30.09in /  1018.8hPa NW 3.0mph /  4.8km/h 10.0mph /  16.1km/h 75% 0.00in /  0mm
11:14 48.8 °F /  9.3 °C 40.5 °F /  4.7 °C 30.09in /  1018.8hPa NNE 3.0mph /  4.8km/h 9.0mph /  14.5km/h 73% 0.00in /  0mm
11:19 49.5 °F /  9.7 °C 40.9 °F /  4.9 °C 30.09in /  1018.8hPa Calm   9.0mph /  14.5km/h 72% 0.00in /  0mm
11:24 49.8 °F /  9.9 °C 40.4 °F /  4.7 °C 30.09in /  1018.8hPa North 2.0mph /  3.2km/h 8.0mph /  12.9km/h 70% 0.00in /  0mm
11:34 50.6 °F /  10.3 °C 41.6 °F /  5.3 °C 30.09in /  1018.8hPa Calm   6.0mph /  9.7km/h 71% 0.00in /  0mm
11:39 50.5 °F /  10.3 °C 41.1 °F /  5.1 °C 30.09in /  1018.8hPa North 4.0mph /  6.4km/h 9.0mph /  14.5km/h 70% 0.00in /  0mm
11:44 50.9 °F /  10.5 °C 41.8 °F /  5.4 °C 30.08in /  1018.5hPa NE 3.0mph /  4.8km/h 12.0mph /  19.3km/h 71% 0.00in /  0mm
11:49 51.5 °F /  10.8 °C 40.5 °F /  4.7 °C 30.08in /  1018.5hPa North 5.0mph /  8km/h 13.0mph /  20.9km/h 66% 0.00in /  0mm
11:54 51.7 °F /  10.9 °C 41.5 °F /  5.3 °C 30.08in /  1018.5hPa North 3.0mph /  4.8km/h 13.0mph /  20.9km/h 68% 0.00in /  0mm
11:59 51.4 °F /  10.8 °C 40.8 °F /  4.9 °C 30.08in /  1018.5hPa NE 2.0mph /  3.2km/h 10.0mph /  16.1km/h 67% 0.00in /  0mm
12:04 51.2 °F /  10.7 °C 41.8 °F /  5.4 °C 30.08in /  1018.5hPa NNW 2.0mph /  3.2km/h 10.0mph /  16.1km/h 70% 0.00in /  0mm
12:09 51.4 °F /  10.8 °C 41.6 °F /  5.3 °C 30.08in /  1018.5hPa North 1.0mph /  1.6km/h 9.0mph /  14.5km/h 69% 0.00in /  0mm
12:14 51.9 °F /  11.1 °C 41.3 °F /  5.2 °C 30.08in /  1018.5hPa North 5.0mph /  8km/h 9.0mph /  14.5km/h 67% 0.00in /  0mm
12:19 52.6 °F /  11.4 °C 40.8 °F /  4.9 °C 30.08in /  1018.5hPa North 6.0mph /  9.7km/h 15.0mph /  24.1km/h 64% 0.00in /  0mm
12:24 52.2 °F /  11.2 °C 41.2 °F /  5.1 °C 30.08in /  1018.5hPa NNW 2.0mph /  3.2km/h 15.0mph /  24.1km/h 66% 0.00in /  0mm
12:34 52.8 °F /  11.6 °C 41.8 °F /  5.4 °C 30.08in /  1018.5hPa NNW 1.0mph /  1.6km/h 9.0mph /  14.5km/h 66% 0.00in /  0mm
12:39 53.3 °F /  11.8 °C 42.6 °F /  5.9 °C 30.08in /  1018.5hPa NNE 1.0mph /  1.6km/h 9.0mph /  14.5km/h 67% 0.00in /  0mm
12:44 53.6 °F /  12 °C 42.5 °F /  5.8 °C 30.07in /  1018.2hPa NNE 3.0mph /  4.8km/h 9.0mph /  14.5km/h 66% 0.00in /  0mm
12:49 53.8 °F /  12.1 °C 41.9 °F /  5.5 °C 30.07in /  1018.2hPa NNW 3.0mph /  4.8km/h 9.0mph /  14.5km/h 64% 0.00in /  0mm
12:54 54.1 °F /  12.3 °C 42.6 °F /  5.9 °C 30.07in /  1018.2hPa North 2.0mph /  3.2km/h 9.0mph /  14.5km/h 65% 0.00in /  0mm
12:59 54.5 °F /  12.5 °C 42.6 °F /  5.9 °C 30.07in /  1018.2hPa NE 3.0mph /  4.8km/h 12.0mph /  19.3km/h 64% 0.00in /  0mm
13:04 54.2 °F /  12.3 °C 41.9 °F /  5.5 °C 30.07in /  1018.2hPa NNW 1.0mph /  1.6km/h 12.0mph /  19.3km/h 63% 0.00in /  0mm
13:09 54.3 °F /  12.4 °C 43.2 °F /  6.2 °C 30.07in /  1018.2hPa NW 2.0mph /  3.2km/h 8.0mph /  12.9km/h 66% 0.00in /  0mm
13:14 54.6 °F /  12.6 °C 42.7 °F /  5.9 °C 30.07in /  1018.2hPa Calm   8.0mph /  12.9km/h 64% 0.00in /  0mm
13:19 54.9 °F /  12.7 °C 43.0 °F /  6.1 °C 30.07in /  1018.2hPa North 2.0mph /  3.2km/h 8.0mph /  12.9km/h 64% 0.00in /  0mm
13:24 54.7 °F /  12.6 °C 41.5 °F /  5.3 °C 30.07in /  1018.2hPa NNE 4.0mph /  6.4km/h 12.0mph /  19.3km/h 61% 0.00in /  0mm
13:29 54.4 °F /  12.4 °C 41.2 °F /  5.1 °C 30.06in /  1017.8hPa NW 2.0mph /  3.2km/h 12.0mph /  19.3km/h 61% 0.00in /  0mm
13:34 54.4 °F /  12.4 °C 42.9 °F /  6.1 °C 30.06in /  1017.8hPa NNW 2.0mph /  3.2km/h 10.0mph /  16.1km/h 65% 0.00in /  0mm
13:39 55.1 °F /  12.8 °C 42.7 °F /  5.9 °C 30.06in /  1017.8hPa NNW 1.0mph /  1.6km/h 10.0mph /  16.1km/h 63% 0.00in /  0mm
13:44 55.6 °F /  13.1 °C 41.1 °F /  5.1 °C 30.06in /  1017.8hPa North 2.0mph /  3.2km/h 9.0mph /  14.5km/h 58% 0.00in /  0mm
13:54 55.8 °F /  13.2 °C 42.6 °F /  5.9 °C 30.06in /  1017.8hPa NNW 2.0mph /  3.2km/h 9.0mph /  14.5km/h 61% 0.00in /  0mm
13:59 56.2 °F /  13.4 °C 42.1 °F /  5.6 °C 30.06in /  1017.8hPa NNE 3.0mph /  4.8km/h 13.0mph /  20.9km/h 59% 0.00in /  0mm
14:04 56.5 °F /  13.6 °C 41.9 °F /  5.5 °C 30.06in /  1017.8hPa NNE 1.0mph /  1.6km/h 13.0mph /  20.9km/h 58% 0.00in /  0mm
14:14 56.5 °F /  13.6 °C 41.0 °F /  5 °C 30.06in /  1017.8hPa Calm   11.0mph /  17.7km/h 56% 0.00in /  0mm
14:19 56.9 °F /  13.8 °C 41.4 °F /  5.2 °C 30.06in /  1017.8hPa North 1.0mph /  1.6km/h 11.0mph /  17.7km/h 56% 0.00in /  0mm
14:24 56.9 °F /  13.8 °C 43.2 °F /  6.2 °C 30.06in /  1017.8hPa NNW 1.0mph /  1.6km/h 9.0mph /  14.5km/h 60% 0.00in /  0mm
14:34 56.8 °F /  13.8 °C 42.2 °F /  5.7 °C 30.05in /  1017.5hPa North 1.0mph /  1.6km/h 10.0mph /  16.1km/h 58% 0.00in /  0mm
14:39 56.7 °F /  13.7 °C 41.2 °F /  5.1 °C 30.05in /  1017.5hPa Calm   10.0mph /  16.1km/h 56% 0.00in /  0mm
14:49 57.4 °F /  14.1 °C 40.9 °F /  4.9 °C 30.05in /  1017.5hPa NW 1.0mph /  1.6km/h 10.0mph /  16.1km/h 54% 0.00in /  0mm
14:54 57.2 °F /  14 °C 41.7 °F /  5.4 °C 30.05in /  1017.5hPa North 3.0mph /  4.8km/h 13.0mph /  20.9km/h 56% 0.00in /  0mm
14:59 56.8 °F /  13.8 °C 40.8 °F /  4.9 °C 30.05in /  1017.5hPa NNW 2.0mph /  3.2km/h 13.0mph /  20.9km/h 55% 0.00in /  0mm
15:04 56.8 °F /  13.8 °C 40.8 °F /  4.9 °C 30.05in /  1017.5hPa Calm   8.0mph /  12.9km/h 55% 0.00in /  0mm
15:09 56.6 °F /  13.7 °C 42.0 °F /  5.6 °C 30.05in /  1017.5hPa NNW 2.0mph /  3.2km/h 10.0mph /  16.1km/h 58% 0.00in /  0mm
15:14 57.1 °F /  13.9 °C 42.0 °F /  5.6 °C 30.05in /  1017.5hPa NW 4.0mph /  6.4km/h 11.0mph /  17.7km/h 57% 0.00in /  0mm
15:19 57.4 °F /  14.1 °C 44.1 °F /  6.7 °C 30.05in /  1017.5hPa NNW 1.0mph /  1.6km/h 11.0mph /  17.7km/h 61% 0.00in /  0mm
15:24 57.6 °F /  14.2 °C 42.0 °F /  5.6 °C 30.05in /  1017.5hPa NW 4.0mph /  6.4km/h 14.0mph /  22.5km/h 56% 0.00in /  0mm
15:29 57.6 °F /  14.2 °C 42.5 °F /  5.8 °C 30.05in /  1017.5hPa NW 3.0mph /  4.8km/h 14.0mph /  22.5km/h 57% 0.00in /  0mm
15:34 57.7 °F /  14.3 °C 43.5 °F /  6.4 °C 30.05in /  1017.5hPa NNW 1.0mph /  1.6km/h 11.0mph /  17.7km/h 59% 0.00in /  0mm
15:39 57.9 °F /  14.4 °C 41.8 °F /  5.4 °C 30.05in /  1017.5hPa Calm   7.0mph /  11.3km/h 55% 0.00in /  0mm
15:49 57.5 °F /  14.2 °C 42.4 °F /  5.8 °C 30.05in /  1017.5hPa NW 2.0mph /  3.2km/h 11.0mph /  17.7km/h 57% 0.00in /  0mm
15:54 57.3 °F /  14.1 °C 41.7 °F /  5.4 °C 30.05in /  1017.5hPa NW 6.0mph /  9.7km/h 13.0mph /  20.9km/h 56% 0.00in /  0mm
15:59 57.5 °F /  14.2 °C 42.4 °F /  5.8 °C 30.05in /  1017.5hPa Calm   13.0mph /  20.9km/h 57% 0.00in /  0mm
16:04 57.6 °F /  14.2 °C 42.0 °F /  5.6 °C 30.05in /  1017.5hPa North 4.0mph /  6.4km/h 12.0mph /  19.3km/h 56% 0.00in /  0mm
16:09 57.6 °F /  14.2 °C 42.0 °F /  5.6 °C 30.05in /  1017.5hPa NW 1.0mph /  1.6km/h 12.0mph /  19.3km/h 56% 0.00in /  0mm
16:14 57.7 °F /  14.3 °C 42.1 °F /  5.6 °C 30.05in /  1017.5hPa NW 2.0mph /  3.2km/h 8.0mph /  12.9km/h 56% 0.00in /  0mm
16:19 57.9 °F /  14.4 °C 41.8 °F /  5.4 °C 30.05in /  1017.5hPa NNE 1.0mph /  1.6km/h 8.0mph /  12.9km/h 55% 0.00in /  0mm
16:24 58.3 °F /  14.6 °C 42.7 °F /  5.9 °C 30.05in /  1017.5hPa NNW 1.0mph /  1.6km/h 7.0mph /  11.3km/h 56% 0.00in /  0mm
16:29 58.6 °F /  14.8 °C 41.5 °F /  5.3 °C 30.05in /  1017.5hPa NW 4.0mph /  6.4km/h 11.0mph /  17.7km/h 53% 0.00in /  0mm
16:39 58.4 °F /  14.7 °C 41.8 °F /  5.4 °C 30.04in /  1017.2hPa NNW 2.0mph /  3.2km/h 9.0mph /  14.5km/h 54% 0.00in /  0mm
16:44 58.4 °F /  14.7 °C 42.3 °F /  5.7 °C 30.04in /  1017.2hPa NNW 1.0mph /  1.6km/h 9.0mph /  14.5km/h 55% 0.00in /  0mm
16:50 58.7 °F /  14.8 °C 41.6 °F /  5.3 °C 30.05in /  1017.5hPa Calm   8.0mph /  12.9km/h 53% 0.00in /  0mm
16:59 58.5 °F /  14.7 °C 43.3 °F /  6.3 °C 30.04in /  1017.2hPa NNW 1.0mph /  1.6km/h 11.0mph /  17.7km/h 57% 0.00in /  0mm
17:09 59.0 °F /  15 °C 42.4 °F /  5.8 °C 30.04in /  1017.2hPa NNW 1.0mph /  1.6km/h 9.0mph /  14.5km/h 54% 0.00in /  0mm
17:14 59.0 °F /  15 °C 40.4 °F /  4.7 °C 30.04in /  1017.2hPa NNW 1.0mph /  1.6km/h 9.0mph /  14.5km/h 50% 0.00in /  0mm
17:19 59.0 °F /  15 °C 39.9 °F /  4.4 °C 30.04in /  1017.2hPa NNE 3.0mph /  4.8km/h 9.0mph /  14.5km/h 49% 0.00in /  0mm
17:24 59.0 °F /  15 °C 40.9 °F /  4.9 °C 30.04in /  1017.2hPa Calm   8.0mph /  12.9km/h 51% 0.00in /  0mm
17:29 59.0 °F /  15 °C 40.9 °F /  4.9 °C 30.04in /  1017.2hPa NW 1.0mph /  1.6km/h 6.0mph /  9.7km/h 51% 0.00in /  0mm
17:34 59.0 °F /  15 °C 39.9 °F /  4.4 °C 30.04in /  1017.2hPa NNW 2.0mph /  3.2km/h 8.0mph /  12.9km/h 49% 0.00in /  0mm
17:39 58.6 °F /  14.8 °C 39.0 °F /  3.9 °C 30.04in /  1017.2hPa North 1.0mph /  1.6km/h 8.0mph /  12.9km/h 48% 0.00in /  0mm
17:44 58.7 °F /  14.8 °C 40.1 °F /  4.5 °C 30.04in /  1017.2hPa NNE 2.0mph /  3.2km/h 8.0mph /  12.9km/h 50% 0.00in /  0mm
17:49 58.6 °F /  14.8 °C 40.0 °F /  4.4 °C 30.04in /  1017.2hPa Calm   8.0mph /  12.9km/h 50% 0.00in /  0mm
17:54 58.6 °F /  14.8 °C 39.5 °F /  4.2 °C 30.04in /  1017.2hPa NNW 1.0mph /  1.6km/h 8.0mph /  12.9km/h 49% 0.00in /  0mm
17:59 58.6 °F /  14.8 °C 40.5 °F /  4.7 °C 30.04in /  1017.2hPa Calm   6.0mph /  9.7km/h 51% 0.00in /  0mm
18:04 59.0 °F /  15 °C 40.9 °F /  4.9 °C 30.04in /  1017.2hPa Calm   5.0mph /  8km/h 51% 0.00in /  0mm
18:09 59.0 °F /  15 °C 39.9 °F /  4.4 °C 30.04in /  1017.2hPa North 1.0mph /  1.6km/h 9.0mph /  14.5km/h 49% 0.00in /  0mm
18:19 57.9 °F /  14.4 °C 39.4 °F /  4.1 °C 30.05in /  1017.5hPa North 1.0mph /  1.6km/h 13.0mph /  20.9km/h 50% 0.00in /  0mm
18:24 57.4 °F /  14.1 °C 39.4 °F /  4.1 °C 30.05in /  1017.5hPa North 2.0mph /  3.2km/h 13.0mph /  20.9km/h 51% 0.00in /  0mm
18:29 57.2 °F /  14 °C 39.2 °F /  4 °C 30.05in /  1017.5hPa NNE 2.0mph /  3.2km/h 11.0mph /  17.7km/h 51% 0.00in /  0mm
18:34 57.3 °F /  14.1 °C 39.3 °F /  4.1 °C 30.05in /  1017.5hPa North 1.0mph /  1.6km/h 8.0mph /  12.9km/h 51% 0.00in /  0mm
18:39 57.5 °F /  14.2 °C 40.0 °F /  4.4 °C 30.05in /  1017.5hPa North 1.0mph /  1.6km/h 7.0mph /  11.3km/h 52% 0.00in /  0mm
18:44 57.2 °F /  14 °C 38.7 °F /  3.7 °C 30.05in /  1017.5hPa North 1.0mph /  1.6km/h 9.0mph /  14.5km/h 50% 0.00in /  0mm
18:49 57.1 °F /  13.9 °C 39.7 °F /  4.3 °C 30.05in /  1017.5hPa Calm   9.0mph /  14.5km/h 52% 0.00in /  0mm
18:54 56.7 °F /  13.7 °C 38.8 °F /  3.8 °C 30.05in /  1017.5hPa NNE 2.0mph /  3.2km/h 8.0mph /  12.9km/h 51% 0.00in /  0mm
18:59 56.3 °F /  13.5 °C 38.4 °F /  3.6 °C 30.05in /  1017.5hPa Calm   8.0mph /  12.9km/h 51% 0.00in /  0mm
19:09 55.5 °F /  13.1 °C 38.7 °F /  3.7 °C 30.05in /  1017.5hPa NNE 1.0mph /  1.6km/h 7.0mph /  11.3km/h 53% 0.00in /  0mm
19:14 55.1 °F /  12.8 °C 38.3 °F /  3.5 °C 30.05in /  1017.5hPa NNE 2.0mph /  3.2km/h 10.0mph /  16.1km/h 53% 0.00in /  0mm
19:19 54.6 °F /  12.6 °C 38.3 °F /  3.5 °C 30.06in /  1017.8hPa Calm   10.0mph /  16.1km/h 54% 0.00in /  0mm
19:24 54.2 °F /  12.3 °C 37.9 °F /  3.3 °C 30.05in /  1017.5hPa Calm   10.0mph /  16.1km/h 54% 0.00in /  0mm
19:29 53.9 °F /  12.2 °C 38.1 °F /  3.4 °C 30.06in /  1017.8hPa Calm   6.0mph /  9.7km/h 55% 0.00in /  0mm
19:34 53.6 °F /  12 °C 39.2 °F /  4 °C 30.06in /  1017.8hPa Calm   4.0mph /  6.4km/h 58% 0.00in /  0mm
19:39 53.2 °F /  11.8 °C 37.9 °F /  3.3 °C 30.06in /  1017.8hPa NNE 1.0mph /  1.6km/h 8.0mph /  12.9km/h 56% 0.00in /  0mm
19:44 52.7 °F /  11.5 °C 37.5 °F /  3.1 °C 30.06in /  1017.8hPa Calm   8.0mph /  12.9km/h 56% 0.00in /  0mm
19:49 52.3 °F /  11.3 °C 37.1 °F /  2.8 °C 30.06in /  1017.8hPa Calm   5.0mph /  8km/h 56% 0.00in /  0mm
19:54 51.7 °F /  10.9 °C 37.4 °F /  3 °C 30.06in /  1017.8hPa Calm   1.0mph /  1.6km/h 58% 0.00in /  0mm
20:05 50.3 °F /  10.2 °C 37.4 °F /  3 °C 30.06in /  1017.8hPa Calm   2.0mph /  3.2km/h 61% 0.00in /  0mm
20:14 49.1 °F /  9.5 °C 36.6 °F /  2.6 °C 30.06in /  1017.8hPa Calm   5.0mph /  8km/h 62% 0.00in /  0mm
20:19 48.7 °F /  9.3 °C 36.3 °F /  2.4 °C 30.06in /  1017.8hPa Calm   5.0mph /  8km/h 62% 0.00in /  0mm
20:24 48.5 °F /  9.2 °C 35.7 °F /  2.1 °C 30.06in /  1017.8hPa Calm   5.0mph /  8km/h 61% 0.00in /  0mm
20:29 48.4 °F /  9.1 °C 35.6 °F /  2 °C 30.06in /  1017.8hPa Calm   5.0mph /  8km/h 61% 0.00in /  0mm
20:34 48.1 °F /  8.9 °C 34.9 °F /  1.6 °C 30.06in /  1017.8hPa Calm   5.0mph /  8km/h 60% 0.00in /  0mm
20:39 47.9 °F /  8.8 °C 34.7 °F /  1.5 °C 30.06in /  1017.8hPa Calm   1.0mph /  1.6km/h 60% 0.00in /  0mm
20:44 47.5 °F /  8.6 °C 35.5 °F /  1.9 °C 30.07in /  1018.2hPa Calm   1.0mph /  1.6km/h 63% 0.00in /  0mm
20:49 46.9 °F /  8.3 °C 35.8 °F /  2.1 °C 30.08in /  1018.5hPa Calm     65% 0.00in /  0mm
20:54 46.3 °F /  7.9 °C 35.9 °F /  2.2 °C 30.08in /  1018.5hPa Calm     67% 0.00in /  0mm
20:59 45.8 °F /  7.7 °C 35.8 °F /  2.1 °C 30.08in /  1018.5hPa Calm     68% 0.00in /  0mm
21:04 45.5 °F /  7.5 °C 35.2 °F /  1.8 °C 30.08in /  1018.5hPa Calm     67% 0.00in /  0mm
21:09 45.4 °F /  7.4 °C 35.1 °F /  1.7 °C 30.09in /  1018.8hPa Calm     67% 0.00in /  0mm
21:14 45.5 °F /  7.5 °C 34.4 °F /  1.3 °C 30.09in /  1018.8hPa Calm   2.0mph /  3.2km/h 65% 0.00in /  0mm
21:19 45.8 °F /  7.7 °C 35.1 °F /  1.7 °C 30.09in /  1018.8hPa Calm   3.0mph /  4.8km/h 66% 0.00in /  0mm
21:24 46.1 °F /  7.8 °C 34.2 °F /  1.2 °C 30.09in /  1018.8hPa NNE 1.0mph /  1.6km/h 6.0mph /  9.7km/h 63% 0.00in /  0mm
21:29 46.4 °F /  8 °C 34.5 °F /  1.4 °C 30.09in /  1018.8hPa NE 1.0mph /  1.6km/h 6.0mph /  9.7km/h 63% 0.00in /  0mm
21:34 46.7 °F /  8.2 °C 34.8 °F /  1.6 °C 30.09in /  1018.8hPa Calm   5.0mph /  8km/h 63% 0.00in /  0mm
21:39 46.6 °F /  8.1 °C 35.9 °F /  2.2 °C 30.09in /  1018.8hPa Calm   5.0mph /  8km/h 66% 0.00in /  0mm
21:44 46.1 °F /  7.8 °C 35.4 °F /  1.9 °C 30.09in /  1018.8hPa Calm   2.0mph /  3.2km/h 66% 0.00in /  0mm
21:54 45.5 °F /  7.5 °C 35.9 °F /  2.2 °C 30.09in /  1018.8hPa Calm   2.0mph /  3.2km/h 69% 0.00in /  0mm
21:59 45.0 °F /  7.2 °C 35.4 °F /  1.9 °C 30.09in /  1018.8hPa Calm   2.0mph /  3.2km/h 69% 0.00in /  0mm
22:04 45.0 °F /  7.2 °C 34.7 °F /  1.5 °C 30.09in /  1018.8hPa Calm   5.0mph /  8km/h 67% 0.00in /  0mm
22:14 45.0 °F /  7.2 °C 35.8 °F /  2.1 °C 30.09in /  1018.8hPa Calm   1.0mph /  1.6km/h 70% 0.00in /  0mm
22:19 44.6 °F /  7 °C 35.8 °F /  2.1 °C 30.09in /  1018.8hPa Calm   4.0mph /  6.4km/h 71% 0.00in /  0mm
22:24 44.5 °F /  6.9 °C 35.3 °F /  1.8 °C 30.09in /  1018.8hPa Calm   4.0mph /  6.4km/h 70% 0.00in /  0mm
22:29 44.2 °F /  6.8 °C 35.4 °F /  1.9 °C 30.09in /  1018.8hPa Calm   5.0mph /  8km/h 71% 0.00in /  0mm
22:34 44.0 °F /  6.7 °C 35.2 °F /  1.8 °C 30.09in /  1018.8hPa Calm   5.0mph /  8km/h 71% 0.00in /  0mm
22:39 43.7 °F /  6.5 °C 34.9 °F /  1.6 °C 30.09in /  1018.8hPa Calm     71% 0.00in /  0mm
22:44 43.5 °F /  6.4 °C 34.7 °F /  1.5 °C 30.09in /  1018.8hPa Calm   3.0mph /  4.8km/h 71% 0.00in /  0mm
22:49 43.3 °F /  6.3 °C 34.9 °F /  1.6 °C 30.08in /  1018.5hPa Calm   3.0mph /  4.8km/h 72% 0.00in /  0mm
22:54 43.2 °F /  6.2 °C 35.1 °F /  1.7 °C 30.09in /  1018.8hPa Calm     73% 0.00in /  0mm
22:59 42.8 °F /  6 °C 35.1 °F /  1.7 °C 30.09in /  1018.8hPa Calm     74% 0.00in /  0mm
23:04 42.7 °F /  5.9 °C 34.7 °F /  1.5 °C 30.09in /  1018.8hPa Calm     73% 0.00in /  0mm
23:09 42.3 °F /  5.7 °C 34.3 °F /  1.3 °C 30.09in /  1018.8hPa Calm     73% 0.00in /  0mm
23:14 42.2 °F /  5.7 °C 34.5 °F /  1.4 °C 30.09in /  1018.8hPa Calm     74% 0.00in /  0mm
23:19 41.9 °F /  5.5 °C 34.2 °F /  1.2 °C 30.09in /  1018.8hPa Calm     74% 0.00in /  0mm
23:24 42.0 °F /  5.6 °C 34.0 °F /  1.1 °C 30.09in /  1018.8hPa Calm     73% 0.00in /  0mm
23:29 42.1 °F /  5.6 °C 34.1 °F /  1.2 °C 30.09in /  1018.8hPa Calm     73% 0.00in /  0mm
23:34 41.9 °F /  5.5 °C 33.9 °F /  1.1 °C 30.09in /  1018.8hPa Calm     73% 0.00in /  0mm
23:39 41.8 °F /  5.4 °C 33.8 °F /  1 °C 30.08in /  1018.5hPa Calm   1.0mph /  1.6km/h 73% 0.00in /  0mm
23:44 41.7 °F /  5.4 °C 34.0 °F /  1.1 °C 30.08in /  1018.5hPa Calm   1.0mph /  1.6km/h 74% 0.00in /  0mm
23:49 41.7 °F /  5.4 °C 34.4 °F /  1.3 °C 30.08in /  1018.5hPa Calm     75% 0.00in /  0mm
23:59 41.8 °F /  5.4 °C 34.1 °F /  1.2 °C 30.09in /  1018.8hPa Calm     74% 0.00in /  0mm
Westford Weather
Compliments of Weather Underground

 
 
Current Radar Loop:

Copyright © WestfordWeather.net 2007-2014. All rights reserved.